Skagway, AK (99840)

4:47 AM AKDT on September 01, 2015 (GMT -0800)
Skagway | | Change Station
CLOSE
Current Station
Airport
Location: Skagway,
Elevation: 16 ft
Nearby Weather Stations

Elev 16 ft 59.46 °N, 135.32 °W | Updated 54 minutes ago

Scattered Clouds
Scattered Clouds
43 °F
Feels Like 41 °F
N
4
Wind Variable Wind from NE

Today
High -- | Low -- °F
--% Chance of Precip.
Yesterday
High -- | Low -- °F
Precip. -- in
5:57 AM 8:03 PM
Waning Gibbous, 89% visible
Pressure 29.68 in
Visibility 10.0 miles
Clouds Scattered Clouds 9000 ft
Windchill 41 °F
Dew Point 40 °F
Humidity 89%
Rainfall 0.00 in
Snow Depth Not available.
UV 0 out of 12
Pollen Not available.
Air Quality Not available.
Flu Activity Not available.
METAR PAGY 011153Z AUTO 05003KT 10SM SCT090 06/04 A2967 RMK AO2 SLP049 70014 T00610044 10083 20056 51013 TSNO
Pressure 29.68 in
Visibility 10.0 miles
Clouds Scattered Clouds 9000 ft
Windchill 41 °F
Dew Point 40 °F
Humidity 89%
Rainfall 0.00 in
Snow Depth Not available.
UV 0 out of 12
Pollen Not available.
Air Quality Not available.
Flu Activity Not available.
METAR PAGY 011153Z AUTO 05003KT 10SM SCT090 06/04 A2967 RMK AO2 SLP049 70014 T00610044 10083 20056 51013 TSNO

10-Day Weather Forecast

×

Almanac

Astronomy

Sep. 01, 2015 Rise Set
Actual Time
Civil Twilight
Nautical Twilight
Astronomical Twilight
Moon
Length of Visible Light
Length of Day
Tomorrow will be .
, % of the Moon is Illuminated

Today's Extremes

State Highs State Lows

Community

WunderPhotos

Upload Photos

1,851,510 photos uploaded!

WunderBlogs® & News

Nearby

Air Quality

  Air Quality AQ Index Pollutant
Not available.

Snow Depth

Station Depth Elevation

Earthquake Activity

City Distance Mag. Time & Date
Minimum magnitude displayed is 2.5.

Coastal Water Temperatures

Place Temperature

Stations

Nearby Weather Stations

Station Location Temp. Windchill Dew Point Humidity Wind Precip. Elev Updated Type